Time;durP1;ratioP1;P1;durP2;ratioP2;P2;SDS_P1;SDS_P2;PMS_P1;PMS_P2;Temp;Humidity;BMP_temperature;BMP_pressure;BME280_temperature;BME280_humidity;BME280_pressure;Samples;Min_cycle;Max_cycle;Signal;HPM_P1;HPM_P2
2022/07/07 00:01:52;;;;;;;3.42;2.78;;;;;;;;;;5013242;28;20048;-81
2022/07/07 00:04:18;;;;;;;3.95;2.80;;;;;;;;;;5013542;28;20032;-81
2022/07/07 00:06:44;;;;;;;2.75;2.35;;;;;;;;;;5013170;28;20088;-81
2022/07/07 00:09:10;;;;;;;2.80;2.50;;;;;;;;;;5013492;28;20026;-81
2022/07/07 00:11:36;;;;;;;3.55;2.30;;;;;;;;;;5013344;28;20057;-81
2022/07/07 00:14:07;;;;;;;3.03;2.60;;;;;;;;;;5013002;28;20041;-81
2022/07/07 00:16:33;;;;;;;2.72;2.38;;;;;;;;;;5013293;28;20405;-81
2022/07/07 00:19:01;;;;;;;3.92;2.70;;;;;;;;;;5012470;28;20469;-81
2022/07/07 00:21:28;;;;;;;3.22;2.47;;;;;;;;;;5013229;28;20034;-81
2022/07/07 00:23:54;;;;;;;3.10;2.60;;;;;;;;;;5012812;28;20056;-81
2022/07/07 00:26:20;;;;;;;3.05;2.17;;;;;;;;;;5013176;28;20048;-81
2022/07/07 00:28:46;;;;;;;2.78;2.47;;;;;;;;;;4995168;28;20381;-81
2022/07/07 00:31:13;;;;;;;3.08;2.78;;;;;;;;;;5013084;28;20026;-81
2022/07/07 00:33:39;;;;;;;4.28;2.70;;;;;;;;;;5012823;28;20037;-81
2022/07/07 00:36:07;;;;;;;2.78;2.30;;;;;;;;;;5012752;28;20026;-81
2022/07/07 00:38:33;;;;;;;3.88;2.92;;;;;;;;;;5012930;28;20080;-81
2022/07/07 00:40:59;;;;;;;2.85;2.58;;;;;;;;;;5012681;28;20515;-81
2022/07/07 00:43:25;;;;;;;3.35;2.53;;;;;;;;;;5012916;28;20038;-81
2022/07/07 00:45:52;;;;;;;2.88;2.67;;;;;;;;;;5012549;28;20488;-81
2022/07/07 00:48:19;;;;;;;4.03;2.67;;;;;;;;;;5012882;28;20104;-81
2022/07/07 00:50:46;;;;;;;3.10;2.80;;;;;;;;;;5012612;28;20030;-81
2022/07/07 00:53:12;;;;;;;4.57;2.85;;;;;;;;;;5012336;28;20037;-81
2022/07/07 00:55:39;;;;;;;3.38;2.45;;;;;;;;;;5012495;28;20038;-81
2022/07/07 00:58:05;;;;;;;3.22;2.92;;;;;;;;;;5012457;28;20592;-81
2022/07/07 01:00:31;;;;;;;2.88;2.53;;;;;;;;;;5012692;28;20030;-82
2022/07/07 01:02:57;;;;;;;3.03;2.72;;;;;;;;;;5012284;28;20026;-81
2022/07/07 01:05:24;;;;;;;2.70;2.50;;;;;;;;;;5012658;28;20058;-82
2022/07/07 01:07:51;;;;;;;4.50;2.70;;;;;;;;;;5012598;28;20026;-81
2022/07/07 01:10:17;;;;;;;3.15;2.30;;;;;;;;;;5012448;28;20025;-80
2022/07/07 01:12:43;;;;;;;3.30;2.72;;;;;;;;;;5012441;28;20109;-80
2022/07/07 01:15:11;;;;;;;3.28;2.97;;;;;;;;;;5012402;28;20030;-81
2022/07/07 01:17:37;;;;;;;3.85;2.30;;;;;;;;;;5012484;28;20026;-83
2022/07/07 01:20:04;;;;;;;3.42;2.15;;;;;;;;;;5012284;28;20033;-82
2022/07/07 01:22:32;;;;;;;3.15;2.47;;;;;;;;;;5012570;28;20466;-80
2022/07/07 01:24:59;;;;;;;3.47;2.88;;;;;;;;;;5012112;28;20022;-81
2022/07/07 01:27:25;;;;;;;3.30;2.95;;;;;;;;;;5012463;28;20034;-80
2022/07/07 01:29:53;;;;;;;3.45;2.78;;;;;;;;;;5012321;28;20030;-82
2022/07/07 01:32:20;;;;;;;3.17;2.78;;;;;;;;;;5015774;28;20168;-81
2022/07/07 01:34:47;;;;;;;2.50;2.30;;;;;;;;;;5016263;28;20030;-82
2022/07/07 01:37:13;;;;;;;3.50;2.60;;;;;;;;;;5016037;28;20160;-82
2022/07/07 01:39:40;;;;;;;3.10;2.80;;;;;;;;;;5016213;28;20030;-81
2022/07/07 01:42:07;;;;;;;3.47;2.80;;;;;;;;;;5015886;28;20465;-81
2022/07/07 01:44:36;;;;;;;3.53;2.63;;;;;;;;;;5016215;28;20046;-80
2022/07/07 01:47:03;;;;;;;3.88;2.60;;;;;;;;;;5015755;28;20040;-80
2022/07/07 01:49:30;;;;;;;3.53;2.38;;;;;;;;;;5015964;28;20026;-81
2022/07/07 01:51:57;;;;;;;2.92;2.63;;;;;;;;;;5015650;28;20026;-81
2022/07/07 01:54:23;;;;;;;3.20;2.70;;;;;;;;;;5015595;28;20049;-81
2022/07/07 01:56:49;;;;;;;3.22;2.80;;;;;;;;;;5015868;28;20070;-81
2022/07/07 01:59:15;;;;;;;3.13;2.83;;;;;;;;;;4997999;28;20436;-81
2022/07/07 02:01:41;;;;;;;3.05;2.70;;;;;;;;;;5015647;28;20469;-80
2022/07/07 02:04:07;;;;;;;4.25;3.13;;;;;;;;;;5015531;28;20032;-81
2022/07/07 02:06:34;;;;;;;4.78;3.38;;;;;;;;;;5015746;28;20079;-81
2022/07/07 02:09:00;;;;;;;3.08;2.78;;;;;;;;;;5015488;28;20109;-81
2022/07/07 02:11:27;;;;;;;2.88;2.67;;;;;;;;;;5015541;28;20489;-81
2022/07/07 02:13:53;;;;;;;3.10;2.80;;;;;;;;;;5015320;28;20099;-81
2022/07/07 02:16:20;;;;;;;3.85;2.92;;;;;;;;;;5015371;28;20030;-81
2022/07/07 02:18:48;;;;;;;3.60;2.20;;;;;;;;;;5015456;28;20111;-81
2022/07/07 02:21:16;;;;;;;2.95;2.47;;;;;;;;;;5015529;28;20362;-81
2022/07/07 02:23:46;;;;;;;2.95;2.58;;;;;;;;;;5015439;28;20034;-81
2022/07/07 02:26:12;;;;;;;4.43;3.00;;;;;;;;;;5015160;28;20032;-81
2022/07/07 02:28:39;;;;;;;4.13;2.70;;;;;;;;;;5015277;28;20030;-81
2022/07/07 02:31:05;;;;;;;3.50;3.05;;;;;;;;;;5015090;28;20508;-81
2022/07/07 02:33:31;;;;;;;4.57;2.90;;;;;;;;;;5015175;28;20088;-81
2022/07/07 02:35:58;;;;;;;3.47;3.03;;;;;;;;;;5015096;28;20033;-82
2022/07/07 02:38:25;;;;;;;3.10;2.80;;;;;;;;;;5014886;28;20026;-81
2022/07/07 02:40:51;;;;;;;3.17;2.90;;;;;;;;;;5014762;28;20033;-80
2022/07/07 02:43:17;;;;;;;4.20;2.65;;;;;;;;;;5014586;28;20030;-81
2022/07/07 02:45:44;;;;;;;3.10;2.58;;;;;;;;;;5015007;28;20366;-81
2022/07/07 02:48:11;;;;;;;3.60;2.80;;;;;;;;;;5014805;28;20026;-81
2022/07/07 02:50:37;;;;;;;3.00;2.63;;;;;;;;;;5014935;28;20018;-81
2022/07/07 02:53:04;;;;;;;3.17;2.97;;;;;;;;;;5014845;28;20048;-81
2022/07/07 02:55:30;;;;;;;3.10;2.75;;;;;;;;;;5014593;28;20226;-81
2022/07/07 02:58:00;;;;;;;4.57;3.20;;;;;;;;;;5014506;28;20034;-80
2022/07/07 03:00:27;;;;;;;3.17;2.70;;;;;;;;;;5014487;28;20583;-80
2022/07/07 03:02:54;;;;;;;3.42;3.10;;;;;;;;;;5014546;28;20101;-81
2022/07/07 03:05:20;;;;;;;4.82;3.10;;;;;;;;;;5014280;28;20461;-80
2022/07/07 03:07:47;;;;;;;3.83;2.80;;;;;;;;;;5014611;28;20036;-81
2022/07/07 03:10:13;;;;;;;6.18;4.00;;;;;;;;;;5014210;28;20056;-81
2022/07/07 03:12:39;;;;;;;5.68;2.85;;;;;;;;;;5014384;28;20465;-81
2022/07/07 03:15:06;;;;;;;9.88;8.40;;;;;;;;;;5014238;28;20113;-81
2022/07/07 03:17:32;;;;;;;4.22;3.78;;;;;;;;;;5014104;28;20405;-81
2022/07/07 03:19:58;;;;;;;4.25;3.45;;;;;;;;;;5014163;28;20457;-80
2022/07/07 03:22:24;;;;;;;5.28;3.10;;;;;;;;;;5014121;28;20026;-81
2022/07/07 03:24:50;;;;;;;3.33;2.90;;;;;;;;;;5014079;28;20628;-81
2022/07/07 03:27:16;;;;;;;4.20;3.20;;;;;;;;;;5014050;28;20029;-81
2022/07/07 03:29:42;;;;;;;4.28;2.75;;;;;;;;;;5014029;28;20033;-80
2022/07/07 03:32:09;;;;;;;10.38;9.35;;;;;;;;;;5013873;28;20472;-81
2022/07/07 03:34:36;;;;;;;4.57;3.25;;;;;;;;;;5013855;28;20088;-82
2022/07/07 03:37:02;;;;;;;5.30;3.85;;;;;;;;;;5013949;28;20109;-81
2022/07/07 03:39:28;;;;;;;2.67;2.47;;;;;;;;;;4996251;28;20061;-81
2022/07/07 03:41:54;;;;;;;5.43;3.20;;;;;;;;;;5013772;28;20373;-81
2022/07/07 03:44:21;;;;;;;6.03;3.42;;;;;;;;;;4996278;28;20030;-81
2022/07/07 03:46:47;;;;;;;3.88;3.05;;;;;;;;;;5013700;28;20141;-81
2022/07/07 03:49:13;;;;;;;4.25;3.05;;;;;;;;;;5013571;28;20469;-81
2022/07/07 03:51:39;;;;;;;3.92;3.30;;;;;;;;;;5013568;28;20026;-81
2022/07/07 03:54:05;;;;;;;4.43;2.42;;;;;;;;;;5012609;28;20058;-81
2022/07/07 03:56:31;;;;;;;4.60;2.60;;;;;;;;;;5013529;28;20109;-81
2022/07/07 03:58:57;;;;;;;2.22;2.03;;;;;;;;;;5013524;28;20472;-81
2022/07/07 04:01:23;;;;;;;3.53;2.58;;;;;;;;;;5013584;28;20045;-81
2022/07/07 04:03:49;;;;;;;3.40;2.65;;;;;;;;;;5013312;28;20026;-81
2022/07/07 04:06:16;;;;;;;4.47;2.65;;;;;;;;;;5013514;28;20030;-80
2022/07/07 04:08:42;;;;;;;2.55;2.35;;;;;;;;;;5013235;28;20441;-81
2022/07/07 04:11:08;;;;;;;7.22;5.82;;;;;;;;;;5013349;28;20053;-81
2022/07/07 04:13:34;;;;;;;11.30;10.10;;;;;;;;;;5013192;28;20034;-80
2022/07/07 04:16:00;;;;;;;3.25;2.80;;;;;;;;;;5013209;28;20084;-81
2022/07/07 04:18:26;;;;;;;5.95;3.10;;;;;;;;;;5013223;28;20504;-81
2022/07/07 04:20:52;;;;;;;3.92;2.67;;;;;;;;;;5012931;28;20436;-81
2022/07/07 04:23:18;;;;;;;6.03;2.45;;;;;;;;;;5013116;28;20033;-81
2022/07/07 04:25:44;;;;;;;5.28;2.60;;;;;;;;;;5012918;28;20076;-82
2022/07/07 04:28:11;;;;;;;5.65;3.38;;;;;;;;;;5012943;28;20033;-81
2022/07/07 04:30:37;;;;;;;3.25;2.60;;;;;;;;;;5013969;28;20500;-81
2022/07/07 04:33:04;;;;;;;2.75;2.47;;;;;;;;;;5012709;28;20468;-80
2022/07/07 04:35:30;;;;;;;4.70;2.17;;;;;;;;;;5012847;28;20049;-81
2022/07/07 04:37:56;;;;;;;2.85;1.70;;;;;;;;;;5012630;28;20033;-81
2022/07/07 04:40:22;;;;;;;2.65;2.33;;;;;;;;;;5012830;28;20591;-82
2022/07/07 04:42:49;;;;;;;9.18;3.70;;;;;;;;;;5012624;28;20025;-81
2022/07/07 04:45:15;;;;;;;2.85;2.15;;;;;;;;;;5012794;28;20025;-81
2022/07/07 04:47:42;;;;;;;4.60;2.40;;;;;;;;;;5012761;28;20029;-80
2022/07/07 04:50:12;;;;;;;3.40;2.50;;;;;;;;;;5012461;28;20028;-81
2022/07/07 04:52:38;;;;;;;4.03;1.80;;;;;;;;;;5012578;28;20077;-81
2022/07/07 04:55:05;;;;;;;2.40;2.05;;;;;;;;;;5011983;28;20065;-82
2022/07/07 04:57:31;;;;;;;3.50;1.90;;;;;;;;;;5012795;28;20485;-81
2022/07/07 04:59:57;;;;;;;2.40;2.10;;;;;;;;;;5012383;28;20049;-81
2022/07/07 05:02:26;;;;;;;3.58;2.05;;;;;;;;;;5013581;28;20088;-81
2022/07/07 05:04:52;;;;;;;3.25;2.25;;;;;;;;;;4997598;28;20449;-81
2022/07/07 05:07:21;;;;;;;1.75;1.50;;;;;;;;;;5019072;28;20847;-81
2022/07/07 05:09:47;;;;;;;4.03;2.08;;;;;;;;;;5018958;28;20041;-79
2022/07/07 05:12:14;;;;;;;1.95;1.80;;;;;;;;;;5018801;28;20025;-79
2022/07/07 05:14:41;;;;;;;2.78;1.85;;;;;;;;;;5017740;28;20033;-79
2022/07/07 05:17:10;;;;;;;3.10;1.90;;;;;;;;;;5018883;28;20480;-80
2022/07/07 05:19:36;;;;;;;3.63;2.08;;;;;;;;;;5019067;28;20461;-81
2022/07/07 05:22:02;;;;;;;3.58;2.15;;;;;;;;;;5018360;28;20053;-80
2022/07/07 05:24:29;;;;;;;3.08;1.60;;;;;;;;;;5001000;28;20017;-79
2022/07/07 05:26:55;;;;;;;2.80;1.90;;;;;;;;;;5018212;28;20369;-80
2022/07/07 05:29:21;;;;;;;2.30;1.83;;;;;;;;;;5015582;28;20029;-78
2022/07/07 05:31:47;;;;;;;2.75;1.73;;;;;;;;;;5011681;28;20113;-80
2022/07/07 05:34:13;;;;;;;6.63;4.85;;;;;;;;;;5017421;28;20033;-79
2022/07/07 05:36:39;;;;;;;1.48;1.30;;;;;;;;;;5017434;28;20084;-80
2022/07/07 05:39:07;;;;;;;2.75;1.40;;;;;;;;;;5012580;28;20028;-80
2022/07/07 05:41:33;;;;;;;2.80;1.48;;;;;;;;;;5017168;28;20032;-79
2022/07/07 05:43:59;;;;;;;2.55;1.15;;;;;;;;;;5017409;28;20041;-80
2022/07/07 05:46:25;;;;;;;3.13;1.27;;;;;;;;;;5004458;28;20096;-81
2022/07/07 05:48:51;;;;;;;28.30;4.57;;;;;;;;;;4992725;28;20033;-80
2022/07/07 05:51:17;;;;;;;4.78;1.35;;;;;;;;;;5015447;28;20037;-81
2022/07/07 05:53:43;;;;;;;40.15;36.47;;;;;;;;;;4996880;28;20049;-80
2022/07/07 05:56:10;;;;;;;8.70;7.90;;;;;;;;;;4996933;28;20121;-79
2022/07/07 05:58:36;;;;;;;3.42;1.52;;;;;;;;;;5015361;28;20081;-79
2022/07/07 06:01:02;;;;;;;2.17;1.27;;;;;;;;;;5009421;28;20121;-82
2022/07/07 06:03:31;;;;;;;1.63;1.15;;;;;;;;;;5013916;28;20022;-81
2022/07/07 06:05:57;;;;;;;5.18;1.80;;;;;;;;;;5016803;28;20121;-78
2022/07/07 06:08:24;;;;;;;1.60;1.20;;;;;;;;;;5017027;28;20042;-82
2022/07/07 06:10:50;;;;;;;1.67;1.33;;;;;;;;;;5016978;28;20101;-82
2022/07/07 06:13:16;;;;;;;3.17;1.20;;;;;;;;;;5016601;28;20477;-83
2022/07/07 06:15:42;;;;;;;2.03;1.58;;;;;;;;;;4997093;28;20087;-82
2022/07/07 06:18:08;;;;;;;2.08;1.20;;;;;;;;;;5010448;28;20376;-79
2022/07/07 06:20:34;;;;;;;4.00;1.25;;;;;;;;;;5013826;28;20041;-82
2022/07/07 06:23:00;;;;;;;3.35;1.67;;;;;;;;;;5013734;28;20088;-77
2022/07/07 06:25:27;;;;;;;2.65;1.48;;;;;;;;;;5013843;28;20030;-79
2022/07/07 06:27:53;;;;;;;2.30;1.48;;;;;;;;;;5013675;28;20792;-79
2022/07/07 06:30:23;;;;;;;2.38;1.55;;;;;;;;;;5013991;28;20022;-80
2022/07/07 06:32:49;;;;;;;1.65;1.55;;;;;;;;;;5007561;28;20042;-80
2022/07/07 06:35:15;;;;;;;1.90;1.50;;;;;;;;;;5013653;28;20037;-78
2022/07/07 06:37:41;;;;;;;2.28;1.40;;;;;;;;;;4991334;28;20088;-79
2022/07/07 06:40:08;;;;;;;3.17;1.65;;;;;;;;;;5013268;28;20034;-83
2022/07/07 06:42:34;;;;;;;1.48;1.27;;;;;;;;;;5006730;28;20026;-78
2022/07/07 06:45:00;;;;;;;2.05;1.33;;;;;;;;;;4997899;28;20030;-80
2022/07/07 06:47:27;;;;;;;2.78;1.63;;;;;;;;;;5010748;28;20029;-80
2022/07/07 06:49:54;;;;;;;2.85;1.52;;;;;;;;;;4992544;28;20053;-81
2022/07/07 06:52:20;;;;;;;1.80;1.70;;;;;;;;;;5006941;28;20506;-80
2022/07/07 06:54:46;;;;;;;4.07;2.50;;;;;;;;;;5000281;28;20129;-79
2022/07/07 06:57:12;;;;;;;3.85;2.60;;;;;;;;;;5012586;28;20152;-78
2022/07/07 06:59:38;;;;;;;11.73;5.40;;;;;;;;;;5013293;28;20413;-80
2022/07/07 07:02:04;;;;;;;17.75;7.07;;;;;;;;;;5012227;28;20025;-79
2022/07/07 07:04:31;;;;;;;66.68;22.70;;;;;;;;;;5013330;28;20497;-81
2022/07/07 07:06:58;;;;;;;44.10;15.77;;;;;;;;;;5013367;28;20412;-80
2022/07/07 07:09:24;;;;;;;63.08;21.40;;;;;;;;;;4994903;28;20044;-82
2022/07/07 07:11:51;;;;;;;46.28;24.05;;;;;;;;;;5012342;28;20547;-78
2022/07/07 07:14:17;;;;;;;22.58;9.25;;;;;;;;;;5012759;28;20034;-82
2022/07/07 07:16:44;;;;;;;43.25;19.20;;;;;;;;;;5006428;28;20030;-82
2022/07/07 07:19:11;;;;;;;27.00;10.43;;;;;;;;;;4999832;28;20042;-80
2022/07/07 07:21:38;;;;;;;110.55;45.40;;;;;;;;;;5001641;28;20026;-79
2022/07/07 07:24:04;;;;;;;29.85;12.90;;;;;;;;;;5009873;28;20104;-80
2022/07/07 07:26:30;;;;;;;7.10;3.05;;;;;;;;;;5006413;28;20587;-86
2022/07/07 07:28:59;;;;;;;10.27;3.83;;;;;;;;;;4997771;28;20030;-84
2022/07/07 07:31:25;;;;;;;10.50;6.45;;;;;;;;;;5009559;28;20022;-79
2022/07/07 07:33:51;;;;;;;11.23;8.65;;;;;;;;;;5002310;28;20551;-82
2022/07/07 07:36:17;;;;;;;9.48;4.68;;;;;;;;;;4993027;28;20401;-89
2022/07/07 07:38:44;;;;;;;9.65;4.70;;;;;;;;;;5012634;28;20033;-86
2022/07/07 07:41:11;;;;;;;30.02;11.77;;;;;;;;;;5010068;28;20026;-79
2022/07/07 07:43:37;;;;;;;17.08;8.98;;;;;;;;;;4985453;28;20030;-86
2022/07/07 07:46:04;;;;;;;22.77;10.18;;;;;;;;;;4984571;28;20038;-83
2022/07/07 07:48:36;;;;;;;23.08;10.30;;;;;;;;;;4985824;28;20030;-85
2022/07/07 07:51:02;;;;;;;27.55;14.27;;;;;;;;;;5010462;28;20029;-88
2022/07/07 07:53:28;;;;;;;30.05;13.93;;;;;;;;;;5009829;28;20058;-86
2022/07/07 07:55:55;;;;;;;47.83;19.52;;;;;;;;;;4994821;28;20022;-84
2022/07/07 07:58:21;;;;;;;17.05;8.07;;;;;;;;;;5009769;28;20033;-83
2022/07/07 08:00:47;;;;;;;22.27;10.23;;;;;;;;;;5011701;28;20030;-79
2022/07/07 08:03:13;;;;;;;38.13;16.13;;;;;;;;;;5011798;28;20033;-82
2022/07/07 08:05:42;;;;;;;35.70;16.00;;;;;;;;;;4993936;28;20030;-86
2022/07/07 08:08:08;;;;;;;27.60;12.93;;;;;;;;;;5011705;28;20058;-86
2022/07/07 08:10:34;;;;;;;2.78;1.70;;;;;;;;;;5011098;28;20034;-82
2022/07/07 08:13:00;;;;;;;4.32;2.00;;;;;;;;;;5011605;28;20049;-82
2022/07/07 08:15:27;;;;;;;2.50;1.83;;;;;;;;;;5007909;28;20030;-81
2022/07/07 08:17:53;;;;;;;3.67;2.50;;;;;;;;;;4993498;28;20042;-84
2022/07/07 08:20:19;;;;;;;3.58;2.10;;;;;;;;;;5007174;28;20447;-80
2022/07/07 08:22:45;;;;;;;3.05;1.65;;;;;;;;;;5011876;28;20032;-81
2022/07/07 08:25:12;;;;;;;3.35;1.92;;;;;;;;;;5011450;28;20493;-82
2022/07/07 08:27:38;;;;;;;7.57;1.90;;;;;;;;;;4993856;28;20026;-82
2022/07/07 08:30:05;;;;;;;4.10;2.20;;;;;;;;;;4993225;28;20084;-80
2022/07/07 08:32:31;;;;;;;3.22;1.85;;;;;;;;;;5011487;28;20076;-84
2022/07/07 08:34:57;;;;;;;2.40;1.98;;;;;;;;;;5011552;28;20113;-81
2022/07/07 08:37:23;;;;;;;2.33;1.85;;;;;;;;;;5009768;28;20026;-82
2022/07/07 08:39:50;;;;;;;2.72;1.85;;;;;;;;;;5007813;28;20100;-76
2022/07/07 08:42:16;;;;;;;5.10;2.20;;;;;;;;;;5009696;28;20040;-79
2022/07/07 08:44:42;;;;;;;3.97;2.15;;;;;;;;;;4990333;28;20034;-80
2022/07/07 08:47:08;;;;;;;3.03;1.85;;;;;;;;;;5009651;28;20104;-78
2022/07/07 08:49:35;;;;;;;2.80;1.90;;;;;;;;;;5011085;28;20481;-81
2022/07/07 08:52:02;;;;;;;3.17;2.00;;;;;;;;;;5006969;28;20030;-79
2022/07/07 08:54:28;;;;;;;2.53;1.80;;;;;;;;;;5006617;28;20048;-81
2022/07/07 08:56:55;;;;;;;2.88;2.05;;;;;;;;;;4993027;28;20455;-81
2022/07/07 08:59:21;;;;;;;2.70;2.20;;;;;;;;;;5010682;28;20038;-77
2022/07/07 09:01:55;;;;;;;3.67;1.98;;;;;;;;;;5011997;28;20092;-82
2022/07/07 09:04:21;;;;;;;;;;;;;;;;;;5004843;28;20052;-79
2022/07/07 09:06:55;;;;;;;3.00;2.17;;;;;;;;;;5009610;28;19920;-81
2022/07/07 09:12:33;;;;;;;3.33;2.40;;;;;;;;;;5010208;28;20456;-77
2022/07/07 09:15:03;;;;;;;4.38;3.40;;;;;;;;;;4992449;28;20477;-83
2022/07/07 09:17:31;;;;;;;3.45;2.20;;;;;;;;;;5010204;28;20054;-83
2022/07/07 09:20:01;;;;;;;2.55;2.20;;;;;;;;;;5010939;28;20132;-83
2022/07/07 09:23:00;;;;;;;2.90;2.03;;;;;;;;;;5010118;28;20066;-81
2022/07/07 09:25:28;;;;;;;2.67;1.70;;;;;;;;;;4964272;28;20065;-79
2022/07/07 09:27:59;;;;;;;4.72;2.42;;;;;;;;;;5008091;28;20104;-81
2022/07/07 09:30:44;;;;;;;4.43;2.75;;;;;;;;;;5007381;28;20057;-81
2022/07/07 09:33:28;;;;;;;3.00;2.35;;;;;;;;;;5008028;28;20049;-82
2022/07/07 09:39:06;;;;;;;3.95;2.08;;;;;;;;;;5004906;28;20056;-83
2022/07/07 09:41:36;;;;;;;7.53;2.90;;;;;;;;;;4990205;28;20370;-80
2022/07/07 09:44:03;;;;;;;3.00;2.10;;;;;;;;;;5008193;28;20100;-79
2022/07/07 09:46:29;;;;;;;2.20;1.70;;;;;;;;;;4999569;28;20034;-78
2022/07/07 09:48:56;;;;;;;2.40;1.98;;;;;;;;;;5004249;28;20087;-83
2022/07/07 09:51:26;;;;;;;3.40;2.00;;;;;;;;;;5004552;28;20076;-78
2022/07/07 09:53:53;;;;;;;3.05;1.67;;;;;;;;;;5011067;28;20163;-80
2022/07/07 09:56:38;;;;;;;2.20;2.00;;;;;;;;;;5010004;28;20477;-78
2022/07/07 09:59:11;;;;;;;3.25;2.97;;;;;;;;;;5010955;28;20041;-81
2022/07/07 10:01:38;;;;;;;3.65;1.95;;;;;;;;;;4970426;28;20126;-83
2022/07/07 10:04:05;;;;;;;2.70;2.17;;;;;;;;;;5008544;28;20116;-82
2022/07/07 10:06:34;;;;;;;3.78;2.60;;;;;;;;;;5012090;28;20096;-82
2022/07/07 10:09:14;;;;;;;1.92;1.70;;;;;;;;;;4994114;28;20457;-83
2022/07/07 10:11:41;;;;;;;5.60;1.90;;;;;;;;;;4989806;28;20038;-84
2022/07/07 10:14:12;;;;;;;4.55;4.15;;;;;;;;;;4993189;28;20097;-79
2022/07/07 10:16:39;;;;;;;4.40;1.98;;;;;;;;;;5007924;28;20058;-81
2022/07/07 10:19:05;;;;;;;2.20;1.80;;;;;;;;;;4994404;28;20030;-82
2022/07/07 10:21:32;;;;;;;2.67;2.25;;;;;;;;;;5008915;28;20642;-81
2022/07/07 10:23:58;;;;;;;3.50;2.47;;;;;;;;;;5012884;28;20033;-81
2022/07/07 10:26:37;;;;;;;2.67;2.45;;;;;;;;;;5008967;28;20037;-80
2022/07/07 10:29:04;;;;;;;2.58;1.80;;;;;;;;;;5011092;28;20026;-81
2022/07/07 10:31:31;;;;;;;3.55;1.90;;;;;;;;;;4995418;28;20040;-80
2022/07/07 10:34:04;;;;;;;2.75;2.55;;;;;;;;;;5008289;28;20049;-81
2022/07/07 10:36:49;;;;;;;3.40;2.00;;;;;;;;;;5012104;28;20481;-81
2022/07/07 10:39:15;;;;;;;4.85;4.32;;;;;;;;;;5012547;28;20076;-81
2022/07/07 10:41:42;;;;;;;3.40;2.05;;;;;;;;;;4994602;28;20057;-85
2022/07/07 10:44:11;;;;;;;3.25;2.10;;;;;;;;;;5012497;28;20026;-81
2022/07/07 10:46:39;;;;;;;3.00;1.90;;;;;;;;;;5011378;28;20030;-82
2022/07/07 11:08:28;;;;;;;2.92;1.70;;;;;;;;;;4992696;28;20115;-81
2022/07/07 11:10:55;;;;;;;2.90;1.60;;;;;;;;;;5012998;28;20060;-85
2022/07/07 11:13:23;;;;;;;2.45;1.60;;;;;;;;;;4995361;28;20045;-80
2022/07/07 11:15:50;;;;;;;2.13;1.58;;;;;;;;;;5011934;28;20033;-86
2022/07/07 11:18:20;;;;;;;2.28;1.85;;;;;;;;;;5012509;28;20052;-81
2022/07/07 11:29:59;;;;;;;1.95;1.60;;;;;;;;;;5011917;28;20084;-84
2022/07/07 11:32:36;;;;;;;4.43;2.30;;;;;;;;;;5010292;28;20575;-83
2022/07/07 11:35:07;;;;;;;2.50;1.80;;;;;;;;;;4990551;28;20022;-82
2022/07/07 11:37:34;;;;;;;2.75;2.55;;;;;;;;;;5008123;28;20052;-79
2022/07/07 11:40:00;;;;;;;3.85;2.17;;;;;;;;;;5002168;28;20104;-80
2022/07/07 11:42:34;;;;;;;2.47;1.55;;;;;;;;;;4993712;28;20034;-82
2022/07/07 11:45:00;;;;;;;3.03;1.40;;;;;;;;;;5004663;28;20037;-83
2022/07/07 11:47:26;;;;;;;3.85;1.70;;;;;;;;;;5001495;28;20040;-78
2022/07/07 11:49:55;;;;;;;4.38;2.45;;;;;;;;;;5003275;28;20386;-82
2022/07/07 11:52:23;;;;;;;3.63;2.03;;;;;;;;;;5001804;28;20031;-79
2022/07/07 11:57:57;;;;;;;3.03;1.60;;;;;;;;;;5008939;28;20045;-82
2022/07/07 12:19:23;;;;;;;2.60;1.60;;;;;;;;;;5213007;23;20147;-79
2022/07/07 12:21:51;;;;;;;2.63;2.42;;;;;;;;;;5031557;28;20025;-80
2022/07/07 12:24:23;;;;;;;1.50;1.40;;;;;;;;;;5031064;28;20021;-79
2022/07/07 12:26:51;;;;;;;2.00;1.23;;;;;;;;;;5031189;28;20069;-85
2022/07/07 12:29:20;;;;;;;1.55;1.45;;;;;;;;;;5031464;28;20431;-82
2022/07/07 12:31:48;;;;;;;1.88;1.38;;;;;;;;;;5028699;28;20033;-80
2022/07/07 12:34:15;;;;;;;1.45;1.35;;;;;;;;;;5027391;28;20051;-77
2022/07/07 12:36:42;;;;;;;1.80;1.30;;;;;;;;;;5011737;28;20033;-80
2022/07/07 12:39:08;;;;;;;4.60;2.40;;;;;;;;;;5013673;28;20373;-81
2022/07/07 12:41:38;;;;;;;3.38;2.13;;;;;;;;;;5021670;28;20037;-79
2022/07/07 12:44:12;;;;;;;2.55;2.13;;;;;;;;;;5026525;28;20022;-76
2022/07/07 12:46:39;;;;;;;1.55;1.45;;;;;;;;;;5026848;28;20099;-78
2022/07/07 12:49:05;;;;;;;14.15;13.10;;;;;;;;;;5024494;28;20018;-80
2022/07/07 12:51:31;;;;;;;11.68;10.63;;;;;;;;;;5028851;28;20056;-79
2022/07/07 12:54:00;;;;;;;1.90;1.60;;;;;;;;;;5022239;28;20034;-80
2022/07/07 12:56:37;;;;;;;2.90;1.50;;;;;;;;;;4994567;28;20507;-80
2022/07/07 12:59:19;;;;;;;2.78;2.00;;;;;;;;;;5012183;28;20026;-83
2022/07/07 13:01:52;;;;;;;3.55;1.98;;;;;;;;;;5012024;28;20025;-78
2022/07/07 13:04:26;;;;;;;29.92;14.82;;;;;;;;;;4996861;28;20101;-80
2022/07/07 13:06:54;;;;;;;16.63;7.35;;;;;;;;;;5032030;28;20506;-78
2022/07/07 13:09:20;;;;;;;5.35;3.35;;;;;;;;;;5031990;28;20091;-77
2022/07/07 13:11:50;;;;;;;21.02;8.02;;;;;;;;;;5032058;28;20427;-77
2022/07/07 13:14:16;;;;;;;14.73;6.90;;;;;;;;;;5031984;28;20033;-80
2022/07/07 13:16:42;;;;;;;4.82;3.30;;;;;;;;;;5032345;28;20032;-81
2022/07/07 13:19:09;;;;;;;2.55;1.90;;;;;;;;;;5031404;28;20045;-82
2022/07/07 13:21:35;;;;;;;2.10;1.60;;;;;;;;;;5031881;28;20025;-80
2022/07/07 13:24:01;;;;;;;2.63;2.00;;;;;;;;;;5032068;28;20029;-82
2022/07/07 13:26:29;;;;;;;5.40;2.60;;;;;;;;;;5034048;28;20033;-79
2022/07/07 13:28:55;;;;;;;2.47;2.10;;;;;;;;;;5035976;28;20033;-77
2022/07/07 13:31:22;;;;;;;2.63;1.90;;;;;;;;;;5035979;28;20026;-80
2022/07/07 13:33:48;;;;;;;2.38;1.40;;;;;;;;;;5035643;28;20044;-80
2022/07/07 13:36:14;;;;;;;1.92;1.83;;;;;;;;;;5035980;28;20465;-79
2022/07/07 13:38:40;;;;;;;2.65;1.52;;;;;;;;;;5034574;28;20030;-77
2022/07/07 13:41:06;;;;;;;1.88;1.30;;;;;;;;;;5015705;28;20092;-85
2022/07/07 13:43:33;;;;;;;2.40;2.20;;;;;;;;;;5015896;28;20539;-80
2022/07/07 13:45:59;;;;;;;2.92;1.98;;;;;;;;;;5016136;28;20034;-80
2022/07/07 13:48:25;;;;;;;2.88;1.70;;;;;;;;;;4997992;28;20555;-83
2022/07/07 13:50:53;;;;;;;2.70;1.45;;;;;;;;;;5015690;28;20030;-80
2022/07/07 13:53:19;;;;;;;2.72;1.80;;;;;;;;;;5015233;28;20036;-85
2022/07/07 13:55:45;;;;;;;2.80;1.63;;;;;;;;;;5015434;28;20029;-80
2022/07/07 13:58:11;;;;;;;1.90;1.70;;;;;;;;;;5015462;28;20033;-78
2022/07/07 14:00:38;;;;;;;2.53;2.15;;;;;;;;;;5015707;28;20381;-82
2022/07/07 14:03:04;;;;;;;2.65;1.77;;;;;;;;;;4997978;28;20463;-77
2022/07/07 14:05:31;;;;;;;2.67;1.80;;;;;;;;;;4997395;28;20437;-80
2022/07/07 14:07:57;;;;;;;2.38;2.00;;;;;;;;;;5015287;28;20069;-79
2022/07/07 14:10:23;;;;;;;2.10;1.90;;;;;;;;;;5015041;28;20099;-77
2022/07/07 14:12:49;;;;;;;2.90;1.63;;;;;;;;;;5014870;28;20057;-80
2022/07/07 14:15:16;;;;;;;1.70;1.60;;;;;;;;;;4997486;28;20018;-81
2022/07/07 14:17:42;;;;;;;2.30;1.92;;;;;;;;;;4997256;28;20068;-82
2022/07/07 14:20:08;;;;;;;4.90;1.80;;;;;;;;;;5015002;28;20057;-80
2022/07/07 14:22:35;;;;;;;1.67;1.40;;;;;;;;;;5014683;28;20392;-79
2022/07/07 14:25:01;;;;;;;1.48;1.33;;;;;;;;;;4997372;28;20026;-83
2022/07/07 14:27:28;;;;;;;4.07;1.88;;;;;;;;;;4997121;28;20080;-80
2022/07/07 14:29:55;;;;;;;3.47;2.40;;;;;;;;;;5014846;28;20029;-81
2022/07/07 14:32:22;;;;;;;1.88;1.70;;;;;;;;;;5014743;28;20022;-83
2022/07/07 14:34:48;;;;;;;4.88;1.63;;;;;;;;;;5014577;28;20069;-79
2022/07/07 14:37:14;;;;;;;2.08;1.40;;;;;;;;;;5014653;28;20063;-81
2022/07/07 14:39:40;;;;;;;2.00;1.70;;;;;;;;;;5014468;28;20080;-83
2022/07/07 14:42:07;;;;;;;1.83;1.55;;;;;;;;;;4997039;28;20065;-80
2022/07/07 14:44:33;;;;;;;1.85;1.25;;;;;;;;;;5014234;28;20048;-82
2022/07/07 14:47:00;;;;;;;1.52;1.30;;;;;;;;;;5014500;28;20453;-87
2022/07/07 14:49:26;;;;;;;2.55;1.45;;;;;;;;;;4997044;28;20030;-81
2022/07/07 14:51:52;;;;;;;3.83;1.52;;;;;;;;;;5014385;28;20073;-80
2022/07/07 14:54:18;;;;;;;3.60;1.65;;;;;;;;;;5017003;28;20034;-82
2022/07/07 14:56:44;;;;;;;2.78;1.30;;;;;;;;;;5014085;28;20431;-81
2022/07/07 14:59:10;;;;;;;2.90;1.40;;;;;;;;;;5014510;28;20487;-78
2022/07/07 15:01:37;;;;;;;4.53;1.70;;;;;;;;;;5013901;28;20025;-81
2022/07/07 15:04:03;;;;;;;1.88;1.52;;;;;;;;;;4996720;28;20028;-80
2022/07/07 15:06:32;;;;;;;1.50;1.40;;;;;;;;;;5014295;28;20366;-80
2022/07/07 15:08:58;;;;;;;2.50;1.83;;;;;;;;;;5013806;28;20058;-78
2022/07/07 15:11:24;;;;;;;2.25;1.63;;;;;;;;;;4996580;28;20029;-78
2022/07/07 15:13:50;;;;;;;1.42;1.30;;;;;;;;;;5013598;28;20389;-81
2022/07/07 15:16:17;;;;;;;2.17;1.60;;;;;;;;;;5014089;28;20040;-82
2022/07/07 15:18:43;;;;;;;1.98;1.75;;;;;;;;;;5013557;28;20136;-80
2022/07/07 15:21:09;;;;;;;2.00;1.40;;;;;;;;;;5014002;28;20030;-78
2022/07/07 15:23:36;;;;;;;2.38;1.80;;;;;;;;;;5013812;28;20109;-79
2022/07/07 15:26:03;;;;;;;2.40;1.50;;;;;;;;;;5013622;28;20026;-79
2022/07/07 15:28:29;;;;;;;2.17;1.58;;;;;;;;;;5013940;28;20030;-77
2022/07/07 15:30:58;;;;;;;3.00;1.50;;;;;;;;;;5013600;28;20120;-80
2022/07/07 15:33:27;;;;;;;1.67;1.25;;;;;;;;;;5013799;28;20088;-81
2022/07/07 15:35:56;;;;;;;1.70;1.25;;;;;;;;;;5013433;28;20057;-81
2022/07/07 15:38:22;;;;;;;2.78;2.50;;;;;;;;;;4996066;28;20065;-78